Terminal Aerodrome Forecast
Issued by NWS Atlanta, GA

Current Version | Previous Version | Text Only | Print | Product List | Glossary On
Versions: 1 2 3 4 5 6 7 8 9 10 11 12 13 14 15 16 17 18 19 20 21 22 23 24 25 26 27 28 29 30 31 32 33 34 35 36
000
FTUS42 KFFC 280500
TAFATL
TAF
KATL 280523Z 2806/2912 26008KT P6SM FEW060 BKN150
     FM281000 26009KT P6SM VCSH SCT035 BKN060
      TEMPO 2811/2815 5SM -TSRA BKN030CB
     FM281500 29010G18KT P6SM VCSH BKN040
     FM281900 31012G20KT P6SM SCT050
     FM290100 32010KT P6SM SCT100
     FM290900 32007KT P6SM SKC=

USA.gov is the U.S. government's official web portal to all federal, state and local government web resources and services.